Terminal Aerodrome Forecast
Issued by NWS

Home | Current Version | Previous Version | Text Only | Print | Product List | Glossary On
Versions: 1 2 3 4 5 6 7 8 9 10 11 12 13 14 15
000
FTUS42 KGSP 202334
TAFGMU
TAF
KGMU 202334Z 2100/2124 05004KT P6SM SCT009 OVC014
      TEMPO 2100/2103 BKN009
     FM210600 04003KT 3SM BR OVC013
     FM211600 06005KT P6SM BKN050
     FM212100 08006KT P6SM BKN025=

USA.gov is the U.S. government's official web portal to all federal, state and local government web resources and services.